sensor_id;sensor_type;location;lat;lon;timestamp;pressure;altitude;pressure_sealevel;temperature;humidity
8398;BME280;4236;54.504;9.588;2023-01-29T00:01:59;102496.66;;;4.41;100.00
8398;BME280;4236;54.504;9.588;2023-01-29T00:04:28;102489.69;;;4.40;100.00
8398;BME280;4236;54.504;9.588;2023-01-29T00:06:55;102498.47;;;4.40;100.00
8398;BME280;4236;54.504;9.588;2023-01-29T00:09:23;102496.78;;;4.39;100.00
8398;BME280;4236;54.504;9.588;2023-01-29T00:11:51;102494.97;;;4.40;100.00
8398;BME280;4236;54.504;9.588;2023-01-29T00:14:18;102499.41;;;4.39;100.00
8398;BME280;4236;54.504;9.588;2023-01-29T00:16:46;102503.97;;;4.37;100.00
8398;BME280;4236;54.504;9.588;2023-01-29T00:19:14;102504.81;;;4.38;100.00
8398;BME280;4236;54.504;9.588;2023-01-29T00:21:44;102510.09;;;4.38;100.00
8398;BME280;4236;54.504;9.588;2023-01-29T00:24:12;102499.88;;;4.33;100.00
8398;BME280;4236;54.504;9.588;2023-01-29T00:26:39;102490.28;;;4.32;100.00
8398;BME280;4236;54.504;9.588;2023-01-29T00:29:08;102489.19;;;4.35;100.00
8398;BME280;4236;54.504;9.588;2023-01-29T00:31:36;102477.78;;;4.34;100.00
8398;BME280;4236;54.504;9.588;2023-01-29T00:34:04;102477.78;;;4.34;100.00
8398;BME280;4236;54.504;9.588;2023-01-29T00:36:32;102484.16;;;4.32;100.00
8398;BME280;4236;54.504;9.588;2023-01-29T00:39:01;102486.06;;;4.30;100.00
8398;BME280;4236;54.504;9.588;2023-01-29T00:41:36;102502.13;;;4.27;100.00
8398;BME280;4236;54.504;9.588;2023-01-29T00:44:22;102495.16;;;4.26;100.00
8398;BME280;4236;54.504;9.588;2023-01-29T00:47:06;102492.53;;;4.26;100.00
8398;BME280;4236;54.504;9.588;2023-01-29T00:49:55;102492.63;;;4.24;100.00
8398;BME280;4236;54.504;9.588;2023-01-29T00:52:23;102493.59;;;4.23;100.00
8398;BME280;4236;54.504;9.588;2023-01-29T00:54:53;102493.69;;;4.22;100.00
8398;BME280;4236;54.504;9.588;2023-01-29T00:57:22;102485.06;;;4.20;100.00
8398;BME280;4236;54.504;9.588;2023-01-29T00:59:50;102483.25;;;4.20;100.00
8398;BME280;4236;54.504;9.588;2023-01-29T01:02:18;102479.78;;;4.20;100.00
8398;BME280;4236;54.504;9.588;2023-01-29T01:05:05;102484.19;;;4.19;100.00
8398;BME280;4236;54.504;9.588;2023-01-29T01:07:35;102488.53;;;4.20;100.00
8398;BME280;4236;54.504;9.588;2023-01-29T01:10:05;102481.34;;;4.22;100.00
8398;BME280;4236;54.504;9.588;2023-01-29T01:12:48;102478.69;;;4.22;100.00
8398;BME280;4236;54.504;9.588;2023-01-29T01:15:17;102469.69;;;4.25;100.00
8398;BME280;4236;54.504;9.588;2023-01-29T01:17:45;102481.00;;;4.27;100.00
8398;BME280;4236;54.504;9.588;2023-01-29T01:20:14;102478.38;;;4.27;100.00
8398;BME280;4236;54.504;9.588;2023-01-29T01:22:42;102467.69;;;4.28;100.00
8398;BME280;4236;54.504;9.588;2023-01-29T01:25:11;102458.69;;;4.31;100.00
8398;BME280;4236;54.504;9.588;2023-01-29T01:27:39;102462.06;;;4.33;100.00
8398;BME280;4236;54.504;9.588;2023-01-29T01:30:10;102462.66;;;4.36;100.00
8398;BME280;4236;54.504;9.588;2023-01-29T01:32:38;102465.19;;;4.38;100.00
8398;BME280;4236;54.504;9.588;2023-01-29T01:35:07;102454.63;;;4.38;100.00
8398;BME280;4236;54.504;9.588;2023-01-29T01:37:35;102465.19;;;4.38;100.00
8398;BME280;4236;54.504;9.588;2023-01-29T01:40:05;102474.06;;;4.37;100.00
8398;BME280;4236;54.504;9.588;2023-01-29T01:42:39;102476.09;;;4.33;100.00
8398;BME280;4236;54.504;9.588;2023-01-29T01:45:17;102463.00;;;4.32;100.00
8398;BME280;4236;54.504;9.588;2023-01-29T01:47:47;102462.41;;;4.28;100.00
8398;BME280;4236;54.504;9.588;2023-01-29T01:50:19;102465.25;;;4.25;100.00
8398;BME280;4236;54.504;9.588;2023-01-29T01:52:52;102465.63;;;4.21;100.00
8398;BME280;4236;54.504;9.588;2023-01-29T01:55:24;102450.09;;;4.16;100.00
8398;BME280;4236;54.504;9.588;2023-01-29T01:57:56;102447.91;;;4.10;100.00
8398;BME280;4236;54.504;9.588;2023-01-29T02:00:26;102436.97;;;4.04;100.00
8398;BME280;4236;54.504;9.588;2023-01-29T02:02:54;102425.19;;;3.97;100.00
8398;BME280;4236;54.504;9.588;2023-01-29T02:05:40;102430.91;;;3.90;100.00
8398;BME280;4236;54.504;9.588;2023-01-29T02:08:31;102436.75;;;3.83;100.00
8398;BME280;4236;54.504;9.588;2023-01-29T02:11:19;102426.41;;;3.80;100.00
8398;BME280;4236;54.504;9.588;2023-01-29T02:13:49;102415.00;;;3.79;100.00
8398;BME280;4236;54.504;9.588;2023-01-29T02:16:19;102403.50;;;3.80;100.00
8398;BME280;4236;54.504;9.588;2023-01-29T02:18:48;102407.44;;;3.75;100.00
8398;BME280;4236;54.504;9.588;2023-01-29T02:24:47;102394.97;;;3.77;100.00
8398;BME280;4236;54.504;9.588;2023-01-29T02:27:23;102388.84;;;3.76;100.00
8398;BME280;4236;54.504;9.588;2023-01-29T02:30:01;102382.84;;;3.74;100.00
8398;BME280;4236;54.504;9.588;2023-01-29T02:32:34;102374.69;;;3.77;100.00
8398;BME280;4236;54.504;9.588;2023-01-29T02:35:12;102372.28;;;3.74;100.00
8398;BME280;4236;54.504;9.588;2023-01-29T02:38:00;102373.63;;;3.80;100.00
8398;BME280;4236;54.504;9.588;2023-01-29T02:40:37;102379.53;;;3.83;100.00
8398;BME280;4236;54.504;9.588;2023-01-29T02:43:14;102367.06;;;3.85;100.00
8398;BME280;4236;54.504;9.588;2023-01-29T02:45:48;102360.84;;;3.86;100.00
8398;BME280;4236;54.504;9.588;2023-01-29T02:48:19;102363.59;;;3.85;100.00
8398;BME280;4236;54.504;9.588;2023-01-29T02:50:55;102354.22;;;3.81;100.00
8398;BME280;4236;54.504;9.588;2023-01-29T02:53:28;102354.31;;;3.79;100.00
8398;BME280;4236;54.504;9.588;2023-01-29T02:56:02;102353.72;;;3.76;100.00
8398;BME280;4236;54.504;9.588;2023-01-29T02:58:38;102357.31;;;3.75;100.00
8398;BME280;4236;54.504;9.588;2023-01-29T03:01:12;102352.88;;;3.75;100.00
8398;BME280;4236;54.504;9.588;2023-01-29T03:03:44;102348.31;;;3.77;100.00
8398;BME280;4236;54.504;9.588;2023-01-29T03:06:18;102347.47;;;3.77;100.00
8398;BME280;4236;54.504;9.588;2023-01-29T03:08:52;102356.22;;;3.77;100.00
8398;BME280;4236;54.504;9.588;2023-01-29T03:11:21;102363.31;;;3.77;100.00
8398;BME280;4236;54.504;9.588;2023-01-29T03:13:53;102361.50;;;3.77;100.00
8398;BME280;4236;54.504;9.588;2023-01-29T03:16:29;102364.06;;;3.79;100.00
8398;BME280;4236;54.504;9.588;2023-01-29T03:19:03;102362.34;;;3.78;100.00
8398;BME280;4236;54.504;9.588;2023-01-29T03:21:33;102376.16;;;3.81;100.00
8398;BME280;4236;54.504;9.588;2023-01-29T03:24:29;102361.06;;;3.83;100.00
8398;BME280;4236;54.504;9.588;2023-01-29T03:27:20;102363.69;;;3.83;100.00
8398;BME280;4236;54.504;9.588;2023-01-29T03:30:09;102356.63;;;3.84;100.00
8398;BME280;4236;54.504;9.588;2023-01-29T03:33:01;102362.53;;;3.87;100.00
8398;BME280;4236;54.504;9.588;2023-01-29T03:35:33;102358.91;;;3.88;100.00
8398;BME280;4236;54.504;9.588;2023-01-29T03:38:03;102357.03;;;3.90;100.00
8398;BME280;4236;54.504;9.588;2023-01-29T03:40:35;102358.69;;;3.91;100.00
8398;BME280;4236;54.504;9.588;2023-01-29T03:43:10;102367.34;;;3.94;100.00
8398;BME280;4236;54.504;9.588;2023-01-29T03:45:48;102369.00;;;3.95;100.00
8398;BME280;4236;54.504;9.588;2023-01-29T03:48:29;102367.97;;;3.97;100.00
8398;BME280;4236;54.504;9.588;2023-01-29T03:51:03;102365.19;;;3.99;100.00
8398;BME280;4236;54.504;9.588;2023-01-29T03:53:41;102368.69;;;3.99;100.00
8398;BME280;4236;54.504;9.588;2023-01-29T03:56:20;102367.75;;;4.00;100.00
8398;BME280;4236;54.504;9.588;2023-01-29T03:58:55;102368.44;;;4.02;100.00
8398;BME280;4236;54.504;9.588;2023-01-29T04:01:30;102371.09;;;4.02;100.00
8398;BME280;4236;54.504;9.588;2023-01-29T04:04:05;102367.25;;;4.06;100.00
8398;BME280;4236;54.504;9.588;2023-01-29T04:06:37;102366.31;;;4.07;100.00
8398;BME280;4236;54.504;9.588;2023-01-29T04:09:10;102373.28;;;4.08;100.00
8398;BME280;4236;54.504;9.588;2023-01-29T04:11:43;102362.50;;;4.11;100.00
8398;BME280;4236;54.504;9.588;2023-01-29T04:14:12;102350.13;;;4.12;100.00
8398;BME280;4236;54.504;9.588;2023-01-29T04:16:43;102351.78;;;4.13;100.00
8398;BME280;4236;54.504;9.588;2023-01-29T04:19:15;102346.28;;;4.16;100.00
8398;BME280;4236;54.504;9.588;2023-01-29T04:21:44;102338.25;;;4.17;100.00
8398;BME280;4236;54.504;9.588;2023-01-29T04:24:15;102318.22;;;4.15;100.00
8398;BME280;4236;54.504;9.588;2023-01-29T04:26:54;102309.31;;;4.16;100.00
8398;BME280;4236;54.504;9.588;2023-01-29T04:29:33;102315.44;;;4.16;100.00
8398;BME280;4236;54.504;9.588;2023-01-29T04:32:10;102320.13;;;4.13;100.00
8398;BME280;4236;54.504;9.588;2023-01-29T04:34:49;102305.84;;;4.15;100.00
8398;BME280;4236;54.504;9.588;2023-01-29T04:37:30;102319.88;;;4.16;100.00
8398;BME280;4236;54.504;9.588;2023-01-29T04:40:11;102308.47;;;4.15;100.00
8398;BME280;4236;54.504;9.588;2023-01-29T04:42:47;102303.94;;;4.17;100.00
8398;BME280;4236;54.504;9.588;2023-01-29T04:45:19;102304.88;;;4.16;100.00
8398;BME280;4236;54.504;9.588;2023-01-29T04:48:00;102295.16;;;4.17;100.00
8398;BME280;4236;54.504;9.588;2023-01-29T04:50:35;102289.03;;;4.16;100.00
8398;BME280;4236;54.504;9.588;2023-01-29T04:53:11;102286.41;;;4.16;100.00
8398;BME280;4236;54.504;9.588;2023-01-29T04:55:46;102318.94;;;4.17;100.00
8398;BME280;4236;54.504;9.588;2023-01-29T04:58:21;102326.84;;;4.17;100.00
8398;BME280;4236;54.504;9.588;2023-01-29T05:00:53;102334.78;;;4.17;100.00
8398;BME280;4236;54.504;9.588;2023-01-29T05:03:24;102337.28;;;4.18;100.00
8398;BME280;4236;54.504;9.588;2023-01-29T05:05:55;102332.75;;;4.20;100.00
8398;BME280;4236;54.504;9.588;2023-01-29T05:08:25;102314.13;;;4.22;100.00
8398;BME280;4236;54.504;9.588;2023-01-29T05:10:56;102284.25;;;4.21;100.00
8398;BME280;4236;54.504;9.588;2023-01-29T05:13:25;102300.94;;;4.22;100.00
8398;BME280;4236;54.504;9.588;2023-01-29T05:15:56;102288.47;;;4.24;100.00
8398;BME280;4236;54.504;9.588;2023-01-29T05:18:27;102275.13;;;4.25;100.00
8398;BME280;4236;54.504;9.588;2023-01-29T05:21:00;102268.16;;;4.24;100.00
8398;BME280;4236;54.504;9.588;2023-01-29T05:23:28;102273.94;;;4.29;100.00
8398;BME280;4236;54.504;9.588;2023-01-29T05:25:56;102263.50;;;4.28;100.00
8398;BME280;4236;54.504;9.588;2023-01-29T05:28:24;102259.06;;;4.28;100.00
8398;BME280;4236;54.504;9.588;2023-01-29T05:30:52;102257.13;;;4.30;100.00
8398;BME280;4236;54.504;9.588;2023-01-29T05:33:25;102245.63;;;4.31;100.00
8398;BME280;4236;54.504;9.588;2023-01-29T05:35:53;102253.44;;;4.33;100.00
8398;BME280;4236;54.504;9.588;2023-01-29T05:38:22;102252.59;;;4.32;100.00
8398;BME280;4236;54.504;9.588;2023-01-29T05:40:50;102248.16;;;4.33;100.00
8398;BME280;4236;54.504;9.588;2023-01-29T05:43:19;102243.56;;;4.35;100.00
8398;BME280;4236;54.504;9.588;2023-01-29T05:45:51;102243.34;;;4.38;100.00
8398;BME280;4236;54.504;9.588;2023-01-29T05:48:19;102232.53;;;4.41;100.00
8398;BME280;4236;54.504;9.588;2023-01-29T05:50:47;102236.88;;;4.42;100.00
8398;BME280;4236;54.504;9.588;2023-01-29T05:53:15;102236.88;;;4.42;100.00
8398;BME280;4236;54.504;9.588;2023-01-29T05:55:44;102222.91;;;4.40;100.00
8398;BME280;4236;54.504;9.588;2023-01-29T05:58:13;102216.69;;;4.41;100.00
8398;BME280;4236;54.504;9.588;2023-01-29T06:00:40;102219.94;;;4.44;100.00
8398;BME280;4236;54.504;9.588;2023-01-29T06:03:08;102224.38;;;4.44;100.00
8398;BME280;4236;54.504;9.588;2023-01-29T06:05:36;102218.09;;;4.45;100.00
8398;BME280;4236;54.504;9.588;2023-01-29T06:08:06;102215.34;;;4.46;100.00
8398;BME280;4236;54.504;9.588;2023-01-29T06:10:34;102210.91;;;4.47;100.00
8398;BME280;4236;54.504;9.588;2023-01-29T06:13:03;102208.28;;;4.47;100.00
8398;BME280;4236;54.504;9.588;2023-01-29T06:15:30;102206.25;;;4.51;100.00
8398;BME280;4236;54.504;9.588;2023-01-29T06:17:58;102202.38;;;4.55;100.00
8398;BME280;4236;54.504;9.588;2023-01-29T06:20:26;102196.25;;;4.54;100.00
8398;BME280;4236;54.504;9.588;2023-01-29T06:22:53;102198.53;;;4.59;100.00
8398;BME280;4236;54.504;9.588;2023-01-29T06:25:21;102200.22;;;4.60;100.00
8398;BME280;4236;54.504;9.588;2023-01-29T06:27:49;102210.41;;;4.64;100.00
8398;BME280;4236;54.504;9.588;2023-01-29T06:30:18;102198.16;;;4.63;100.00
8398;BME280;4236;54.504;9.588;2023-01-29T06:32:46;102197.09;;;4.66;100.00
8398;BME280;4236;54.504;9.588;2023-01-29T06:35:14;102190.13;;;4.65;100.00
8398;BME280;4236;54.504;9.588;2023-01-29T06:37:41;102184.59;;;4.68;100.00
8398;BME280;4236;54.504;9.588;2023-01-29T06:40:10;102183.88;;;4.66;100.00
8398;BME280;4236;54.504;9.588;2023-01-29T06:42:38;102182.06;;;4.66;100.00
8398;BME280;4236;54.504;9.588;2023-01-29T06:45:06;102173.06;;;4.69;100.00
8398;BME280;4236;54.504;9.588;2023-01-29T06:47:36;102169.59;;;4.68;100.00
8398;BME280;4236;54.504;9.588;2023-01-29T06:50:04;102168.50;;;4.71;100.00
8398;BME280;4236;54.504;9.588;2023-01-29T06:52:32;102169.44;;;4.70;100.00
8398;BME280;4236;54.504;9.588;2023-01-29T06:54:59;102167.63;;;4.70;100.00
8398;BME280;4236;54.504;9.588;2023-01-29T06:57:27;102158.03;;;4.69;100.00
8398;BME280;4236;54.504;9.588;2023-01-29T06:59:55;102152.63;;;4.71;100.00
8398;BME280;4236;54.504;9.588;2023-01-29T07:02:23;102157.22;;;4.69;100.00
8398;BME280;4236;54.504;9.588;2023-01-29T07:04:52;102156.13;;;4.71;100.00
8398;BME280;4236;54.504;9.588;2023-01-29T07:07:20;102157.22;;;4.69;100.00
8398;BME280;4236;54.504;9.588;2023-01-29T07:09:47;102163.56;;;4.66;100.00
8398;BME280;4236;54.504;9.588;2023-01-29T07:12:15;102171.47;;;4.66;100.00
8398;BME280;4236;54.504;9.588;2023-01-29T07:14:43;102163.56;;;4.66;100.00
8398;BME280;4236;54.504;9.588;2023-01-29T07:17:11;102170.53;;;4.67;100.00
8398;BME280;4236;54.504;9.588;2023-01-29T07:19:39;102163.69;;;4.65;100.00
8398;BME280;4236;54.504;9.588;2023-01-29T07:22:08;102161.91;;;4.65;100.00
8398;BME280;4236;54.504;9.588;2023-01-29T07:24:35;102155.88;;;4.63;100.00
8398;BME280;4236;54.504;9.588;2023-01-29T07:27:03;102160.47;;;4.61;100.00
8398;BME280;4236;54.504;9.588;2023-01-29T07:29:31;102153.25;;;4.63;100.00
8398;BME280;4236;54.504;9.588;2023-01-29T07:31:59;102157.47;;;4.66;100.00
8398;BME280;4236;54.504;9.588;2023-01-29T07:34:26;102150.25;;;4.68;100.00
8398;BME280;4236;54.504;9.588;2023-01-29T07:36:54;102152.03;;;4.67;100.00
8398;BME280;4236;54.504;9.588;2023-01-29T07:39:23;102150.94;;;4.70;100.00
8398;BME280;4236;54.504;9.588;2023-01-29T07:41:51;102154.31;;;4.72;100.00
8398;BME280;4236;54.504;9.588;2023-01-29T07:44:18;102149.75;;;4.74;100.00
8398;BME280;4236;54.504;9.588;2023-01-29T07:46:46;102141.56;;;4.77;100.00
8398;BME280;4236;54.504;9.588;2023-01-29T07:49:14;102144.66;;;4.82;100.00
8398;BME280;4236;54.504;9.588;2023-01-29T07:51:42;102142.16;;;4.80;100.00
8398;BME280;4236;54.504;9.588;2023-01-29T07:54:09;102142.16;;;4.80;100.00
8398;BME280;4236;54.504;9.588;2023-01-29T07:56:39;102147.91;;;4.85;100.00
8398;BME280;4236;54.504;9.588;2023-01-29T07:59:07;102141.06;;;4.83;100.00
8398;BME280;4236;54.504;9.588;2023-01-29T08:01:34;102148.00;;;4.84;100.00
8398;BME280;4236;54.504;9.588;2023-01-29T08:04:02;102152.09;;;4.88;100.00
8398;BME280;4236;54.504;9.588;2023-01-29T08:06:29;102156.78;;;4.95;100.00
8398;BME280;4236;54.504;9.588;2023-01-29T08:08:57;102153.88;;;4.98;100.00
8398;BME280;4236;54.504;9.588;2023-01-29T08:11:25;102148.19;;;5.03;100.00
8398;BME280;4236;54.504;9.588;2023-01-29T08:13:54;102152.53;;;5.04;100.00
8398;BME280;4236;54.504;9.588;2023-01-29T08:16:22;102151.16;;;5.10;100.00
8398;BME280;4236;54.504;9.588;2023-01-29T08:18:50;102149.47;;;5.09;100.00
8398;BME280;4236;54.504;9.588;2023-01-29T08:21:17;102149.63;;;5.07;100.00
8398;BME280;4236;54.504;9.588;2023-01-29T08:23:45;102145.75;;;5.11;100.00
8398;BME280;4236;54.504;9.588;2023-01-29T08:26:13;102136.00;;;5.12;100.00
8398;BME280;4236;54.504;9.588;2023-01-29T08:28:40;102135.75;;;5.15;100.00
8398;BME280;4236;54.504;9.588;2023-01-29T08:31:13;102149.56;;;5.18;100.00
8398;BME280;4236;54.504;9.588;2023-01-29T08:33:41;102138.16;;;5.18;100.00
8398;BME280;4236;54.504;9.588;2023-01-29T08:36:09;102138.59;;;5.23;100.00
8398;BME280;4236;54.504;9.588;2023-01-29T08:38:37;102136.69;;;5.25;100.00
8398;BME280;4236;54.504;9.588;2023-01-29T08:41:05;102134.72;;;5.27;100.00
8398;BME280;4236;54.504;9.588;2023-01-29T08:43:34;102134.72;;;5.27;100.00
8398;BME280;4236;54.504;9.588;2023-01-29T08:46:03;102133.53;;;5.31;100.00
8398;BME280;4236;54.504;9.588;2023-01-29T08:48:33;102119.56;;;5.29;100.00
8398;BME280;4236;54.504;9.588;2023-01-29T08:51:01;102103.69;;;5.29;100.00
8398;BME280;4236;54.504;9.588;2023-01-29T08:53:30;102110.56;;;5.31;100.00
8398;BME280;4236;54.504;9.588;2023-01-29T08:55:58;102097.06;;;5.34;100.00
8398;BME280;4236;54.504;9.588;2023-01-29T08:58:25;102105.56;;;5.38;100.00
8398;BME280;4236;54.504;9.588;2023-01-29T09:00:53;102084.56;;;5.36;100.00
8398;BME280;4236;54.504;9.588;2023-01-29T09:03:21;102074.56;;;5.40;100.00
8398;BME280;4236;54.504;9.588;2023-01-29T09:05:50;102064.56;;;5.43;100.00
8398;BME280;4236;54.504;9.588;2023-01-29T09:08:17;102059.13;;;5.45;100.00
8398;BME280;4236;54.504;9.588;2023-01-29T09:10:45;102057.75;;;5.50;100.00
8398;BME280;4236;54.504;9.588;2023-01-29T09:13:12;102062.94;;;5.62;100.00
8398;BME280;4236;54.504;9.588;2023-01-29T09:15:40;102061.88;;;5.64;100.00
8398;BME280;4236;54.504;9.588;2023-01-29T09:18:08;102068.81;;;5.65;100.00
8398;BME280;4236;54.504;9.588;2023-01-29T09:20:35;102063.84;;;5.72;100.00
8398;BME280;4236;54.504;9.588;2023-01-29T09:23:07;102064.84;;;5.80;100.00
8398;BME280;4236;54.504;9.588;2023-01-29T09:25:36;102062.97;;;5.92;100.00
8398;BME280;4236;54.504;9.588;2023-01-29T09:28:04;102079.31;;;5.97;100.00
8398;BME280;4236;54.504;9.588;2023-01-29T09:30:32;102069.00;;;6.03;100.00
8398;BME280;4236;54.504;9.588;2023-01-29T09:33:03;102066.59;;;6.00;100.00
8398;BME280;4236;54.504;9.588;2023-01-29T09:35:31;102058.50;;;5.92;100.00
8398;BME280;4236;54.504;9.588;2023-01-29T09:37:59;102053.47;;;5.89;100.00
8398;BME280;4236;54.504;9.588;2023-01-29T09:40:31;102048.19;;;5.89;100.00
8398;BME280;4236;54.504;9.588;2023-01-29T09:43:03;102054.06;;;5.93;100.00
8398;BME280;4236;54.504;9.588;2023-01-29T09:45:33;102045.28;;;5.92;100.00
8398;BME280;4236;54.504;9.588;2023-01-29T09:48:03;102048.63;;;5.94;100.00
8398;BME280;4236;54.504;9.588;2023-01-29T09:50:36;102045.41;;;6.00;100.00
8398;BME280;4236;54.504;9.588;2023-01-29T09:53:13;102048.66;;;6.04;100.00
8398;BME280;4236;54.504;9.588;2023-01-29T09:55:48;102045.03;;;6.05;100.00
8398;BME280;4236;54.504;9.588;2023-01-29T09:58:19;102034.97;;;5.99;100.00
8398;BME280;4236;54.504;9.588;2023-01-29T10:00:56;102031.50;;;5.98;100.00
8398;BME280;4236;54.504;9.588;2023-01-29T10:03:39;102027.88;;;5.99;100.00
8398;BME280;4236;54.504;9.588;2023-01-29T10:06:24;102027.03;;;5.99;100.00
8398;BME280;4236;54.504;9.588;2023-01-29T10:09:18;102013.66;;;5.91;100.00
8398;BME280;4236;54.504;9.588;2023-01-29T10:11:57;102008.03;;;5.84;100.00
8398;BME280;4236;54.504;9.588;2023-01-29T10:14:33;102001.03;;;5.83;100.00
8398;BME280;4236;54.504;9.588;2023-01-29T10:17:16;101992.84;;;5.86;100.00
8398;BME280;4236;54.504;9.588;2023-01-29T10:20:02;101992.13;;;5.84;100.00
8398;BME280;4236;54.504;9.588;2023-01-29T10:22:54;101995.28;;;5.99;100.00
8398;BME280;4236;54.504;9.588;2023-01-29T10:25:26;101981.88;;;6.00;100.00
8398;BME280;4236;54.504;9.588;2023-01-29T10:27:57;101981.59;;;6.03;100.00
8398;BME280;4236;54.504;9.588;2023-01-29T10:30:30;101981.59;;;6.03;100.00
8398;BME280;4236;54.504;9.588;2023-01-29T10:33:01;101972.97;;;6.01;100.00
8398;BME280;4236;54.504;9.588;2023-01-29T10:35:32;101973.81;;;6.02;100.00
8398;BME280;4236;54.504;9.588;2023-01-29T10:38:14;101967.13;;;6.17;100.00
8398;BME280;4236;54.504;9.588;2023-01-29T10:40:48;101956.53;;;6.36;100.00
8398;BME280;4236;54.504;9.588;2023-01-29T10:43:26;101959.91;;;6.48;100.00
8398;BME280;4236;54.504;9.588;2023-01-29T10:46:08;101953.19;;;6.44;100.00
8398;BME280;4236;54.504;9.588;2023-01-29T10:48:43;101959.06;;;6.38;100.00
8398;BME280;4236;54.504;9.588;2023-01-29T10:51:25;101952.38;;;6.24;100.00
8398;BME280;4236;54.504;9.588;2023-01-29T10:54:07;101945.94;;;6.17;100.00
8398;BME280;4236;54.504;9.588;2023-01-29T10:56:49;101938.00;;;6.07;100.00
8398;BME280;4236;54.504;9.588;2023-01-29T10:59:35;101944.28;;;5.97;100.00
8398;BME280;4236;54.504;9.588;2023-01-29T11:02:13;101955.25;;;5.92;100.00
8398;BME280;4236;54.504;9.588;2023-01-29T11:04:41;101952.03;;;5.89;100.00
8398;BME280;4236;54.504;9.588;2023-01-29T11:07:09;101941.00;;;5.84;100.00
8398;BME280;4236;54.504;9.588;2023-01-29T11:09:41;101938.78;;;5.79;100.00
8398;BME280;4236;54.504;9.588;2023-01-29T11:12:12;101929.84;;;5.80;100.00
8398;BME280;4236;54.504;9.588;2023-01-29T11:14:44;101921.34;;;5.77;100.00
8398;BME280;4236;54.504;9.588;2023-01-29T11:17:18;101928.47;;;5.76;100.00
8398;BME280;4236;54.504;9.588;2023-01-29T11:19:47;101929.69;;;5.72;100.00
8398;BME280;4236;54.504;9.588;2023-01-29T11:22:17;101924.94;;;5.66;100.00
8398;BME280;4236;54.504;9.588;2023-01-29T11:24:46;101919.91;;;5.53;100.00
8398;BME280;4236;54.504;9.588;2023-01-29T11:27:34;101912.50;;;5.47;100.00
8398;BME280;4236;54.504;9.588;2023-01-29T11:30:14;101911.81;;;5.45;100.00
8398;BME280;4236;54.504;9.588;2023-01-29T11:32:43;101910.66;;;5.38;100.00
8398;BME280;4236;54.504;9.588;2023-01-29T11:35:19;101896.59;;;5.38;100.00
8398;BME280;4236;54.504;9.588;2023-01-29T11:37:48;101893.72;;;5.50;100.00
8398;BME280;4236;54.504;9.588;2023-01-29T11:40:34;101892.63;;;5.63;100.00
8398;BME280;4236;54.504;9.588;2023-01-29T11:43:17;101882.63;;;5.76;100.00
8398;BME280;4236;54.504;9.588;2023-01-29T11:45:48;101873.56;;;5.78;100.00
8398;BME280;4236;54.504;9.588;2023-01-29T11:48:17;101868.81;;;5.72;100.00
8398;BME280;4236;54.504;9.588;2023-01-29T11:50:55;101866.44;;;5.69;100.00
8398;BME280;4236;54.504;9.588;2023-01-29T11:53:33;101855.03;;;5.69;100.00
8398;BME280;4236;54.504;9.588;2023-01-29T11:56:05;101851.97;;;5.64;100.00
8398;BME280;4236;54.504;9.588;2023-01-29T11:58:43;101843.31;;;5.62;100.00
8398;BME280;4236;54.504;9.588;2023-01-29T12:01:16;101848.06;;;5.58;100.00
8398;BME280;4236;54.504;9.588;2023-01-29T12:03:47;101843.59;;;5.68;100.00
8398;BME280;4236;54.504;9.588;2023-01-29T12:06:19;101826.31;;;5.74;100.00
8398;BME280;4236;54.504;9.588;2023-01-29T12:08:53;101819.66;;;5.89;100.00
8398;BME280;4236;54.504;9.588;2023-01-29T12:11:27;101812.28;;;5.92;100.00
8398;BME280;4236;54.504;9.588;2023-01-29T12:13:57;101809.94;;;5.89;100.00
8398;BME280;4236;54.504;9.588;2023-01-29T12:16:30;101808.56;;;5.85;100.00
8398;BME280;4236;54.504;9.588;2023-01-29T12:19:08;101796.53;;;5.81;100.00
8398;BME280;4236;54.504;9.588;2023-01-29T12:21:43;101785.25;;;5.70;100.00
8398;BME280;4236;54.504;9.588;2023-01-29T12:24:24;101790.25;;;5.73;100.00
8398;BME280;4236;54.504;9.588;2023-01-29T12:27:02;101793.47;;;5.67;100.00
8398;BME280;4236;54.504;9.588;2023-01-29T12:29:40;101797.63;;;5.59;100.00
8398;BME280;4236;54.504;9.588;2023-01-29T12:32:21;101774.94;;;5.57;100.00
8398;BME280;4236;54.504;9.588;2023-01-29T12:34:56;101775.38;;;5.52;100.00
8398;BME280;4236;54.504;9.588;2023-01-29T12:37:37;101767.56;;;5.51;100.00
8398;BME280;4236;54.504;9.588;2023-01-29T12:40:11;101773.81;;;5.50;100.00
8398;BME280;4236;54.504;9.588;2023-01-29T12:42:43;101768.94;;;5.45;100.00
8398;BME280;4236;54.504;9.588;2023-01-29T12:45:16;101767.84;;;5.48;100.00
8398;BME280;4236;54.504;9.588;2023-01-29T12:47:48;101762.28;;;5.51;100.00
8398;BME280;4236;54.504;9.588;2023-01-29T12:50:20;101752.38;;;5.63;100.00
8398;BME280;4236;54.504;9.588;2023-01-29T12:52:51;101736.09;;;5.57;100.00
8398;BME280;4236;54.504;9.588;2023-01-29T12:55:22;101745.41;;;5.62;100.00
8398;BME280;4236;54.504;9.588;2023-01-29T12:57:54;101743.75;;;5.70;100.00
8398;BME280;4236;54.504;9.588;2023-01-29T13:00:24;101732.44;;;5.68;100.00
8398;BME280;4236;54.504;9.588;2023-01-29T13:02:58;101737.06;;;5.66;100.00
8398;BME280;4236;54.504;9.588;2023-01-29T13:05:29;101717.41;;;5.69;100.00
8398;BME280;4236;54.504;9.588;2023-01-29T13:08:05;101727.44;;;5.65;100.00
8398;BME280;4236;54.504;9.588;2023-01-29T13:10:36;101723.81;;;5.66;100.00
8398;BME280;4236;54.504;9.588;2023-01-29T13:13:11;101714.94;;;5.57;100.00
8398;BME280;4236;54.504;9.588;2023-01-29T13:15:42;101721.47;;;5.63;100.00
8398;BME280;4236;54.504;9.588;2023-01-29T13:18:28;101709.34;;;5.61;100.00
8398;BME280;4236;54.504;9.588;2023-01-29T13:20:59;101702.78;;;5.65;100.00
8398;BME280;4236;54.504;9.588;2023-01-29T13:23:30;101694.31;;;5.61;100.00
8398;BME280;4236;54.504;9.588;2023-01-29T13:26:00;101695.00;;;5.63;100.00
8398;BME280;4236;54.504;9.588;2023-01-29T13:28:28;101673.16;;;5.61;100.00
8398;BME280;4236;54.504;9.588;2023-01-29T13:31:24;101687.47;;;5.68;100.00
8398;BME280;4236;54.504;9.588;2023-01-29T13:34:03;101675.63;;;5.72;100.00
8398;BME280;4236;54.504;9.588;2023-01-29T13:36:36;101671.59;;;5.68;100.00
8398;BME280;4236;54.504;9.588;2023-01-29T13:39:16;101679.25;;;5.71;100.00
8398;BME280;4236;54.504;9.588;2023-01-29T13:41:46;101674.22;;;5.68;100.00